Bruneau, Idaho
Current Conditions -  °F | °C
As of 9:58 AM on Friday 31 Oct 2014 (Local Time) from KMUO Reporting Station
Overcast Overcast  
Wind Chill: 56°   Ceiling: 16000
Heat Index: 56°   Visibility: 10mi
Dew Point: 30°   Wind: 16mph
Humidity: 37%   Direction: 120°ESE
Pressure: 29.82"   Gusts: NA
Location:  42.88°N, 115.8°W
Report Text: KMUO 311558Z AUTO 12014KT 10SM OVC160 13/M01 A2982 RMK AO2 SLP085 T01341012
Loading
Personal Weather Stations






























Interactive Weather Map
Tropical Storm Tracking
New forecast layout! Learn more

10-Day Weather Forecast

Advertisements
Track Severe Weather on mobile